sensor_id;sensor_type;location;lat;lon;timestamp;pressure;altitude;pressure_sealevel;temperature;humidity
31331;BME280;34067;39.548;-76.088;2022-11-20T00:01:35;101856.49;;;5.08;42.18
31331;BME280;34067;39.548;-76.088;2022-11-20T00:04:03;101861.21;;;4.82;42.29
31331;BME280;34067;39.548;-76.088;2022-11-20T00:06:30;101854.66;;;5.17;42.76
31331;BME280;34067;39.548;-76.088;2022-11-20T00:08:59;101847.26;;;5.42;42.68
31331;BME280;34067;39.548;-76.088;2022-11-20T00:11:29;101851.44;;;5.10;42.66
31331;BME280;34067;39.548;-76.088;2022-11-20T00:13:59;101858.51;;;4.98;42.68
31331;BME280;34067;39.548;-76.088;2022-11-20T00:16:29;101847.83;;;5.07;42.90
31331;BME280;34067;39.548;-76.088;2022-11-20T00:18:57;101835.37;;;4.94;43.23
31331;BME280;34067;39.548;-76.088;2022-11-20T00:21:26;101828.72;;;5.00;43.31
31331;BME280;34067;39.548;-76.088;2022-11-20T00:23:57;101839.50;;;4.96;43.28
31331;BME280;34067;39.548;-76.088;2022-11-20T00:26:26;101833.79;;;4.98;43.51
31331;BME280;34067;39.548;-76.088;2022-11-20T00:28:56;101818.03;;;5.50;43.13
31331;BME280;34067;39.548;-76.088;2022-11-20T00:31:24;101824.08;;;4.77;43.67
31331;BME280;34067;39.548;-76.088;2022-11-20T00:33:52;101814.84;;;4.99;44.26
31331;BME280;34067;39.548;-76.088;2022-11-20T00:36:22;101806.17;;;4.58;44.91
31331;BME280;34067;39.548;-76.088;2022-11-20T00:38:52;101810.87;;;5.07;45.13
31331;BME280;34067;39.548;-76.088;2022-11-20T00:41:20;101814.38;;;5.68;45.29
31331;BME280;34067;39.548;-76.088;2022-11-20T00:43:48;101807.99;;;5.02;45.59
31331;BME280;34067;39.548;-76.088;2022-11-20T00:46:17;101803.38;;;5.17;45.95
31331;BME280;34067;39.548;-76.088;2022-11-20T00:48:45;101808.24;;;5.27;45.91
31331;BME280;34067;39.548;-76.088;2022-11-20T00:51:15;101798.93;;;4.61;46.59
31331;BME280;34067;39.548;-76.088;2022-11-20T00:53:43;101793.53;;;4.84;47.16
31331;BME280;34067;39.548;-76.088;2022-11-20T00:56:12;101789.27;;;4.50;47.52
31331;BME280;34067;39.548;-76.088;2022-11-20T00:58:42;101786.41;;;4.07;47.71
31331;BME280;34067;39.548;-76.088;2022-11-20T01:01:12;101788.15;;;4.89;47.50
31331;BME280;34067;39.548;-76.088;2022-11-20T01:03:41;101784.26;;;4.82;47.86
31331;BME280;34067;39.548;-76.088;2022-11-20T01:06:11;101785.57;;;4.61;47.79
31331;BME280;34067;39.548;-76.088;2022-11-20T01:08:40;101784.54;;;4.79;48.63
31331;BME280;34067;39.548;-76.088;2022-11-20T01:11:10;101775.17;;;5.06;47.88
31331;BME280;34067;39.548;-76.088;2022-11-20T01:13:39;101774.62;;;4.99;48.10
31331;BME280;34067;39.548;-76.088;2022-11-20T01:16:08;101771.57;;;4.57;48.15
31331;BME280;34067;39.548;-76.088;2022-11-20T01:18:37;101765.67;;;5.66;47.46
31331;BME280;34067;39.548;-76.088;2022-11-20T01:21:07;101771.78;;;5.29;47.30
31331;BME280;34067;39.548;-76.088;2022-11-20T01:23:37;101772.20;;;5.13;47.11
31331;BME280;34067;39.548;-76.088;2022-11-20T01:26:08;101762.58;;;4.89;47.26
31331;BME280;34067;39.548;-76.088;2022-11-20T01:28:37;101750.86;;;5.20;46.41
31331;BME280;34067;39.548;-76.088;2022-11-20T01:31:12;101743.09;;;5.28;45.56
31331;BME280;34067;39.548;-76.088;2022-11-20T01:33:41;101737.67;;;5.44;45.35
31331;BME280;34067;39.548;-76.088;2022-11-20T01:36:10;101740.33;;;5.29;45.77
31331;BME280;34067;39.548;-76.088;2022-11-20T01:38:38;101743.75;;;5.29;45.83
31331;BME280;34067;39.548;-76.088;2022-11-20T01:41:07;101746.26;;;4.97;46.20
31331;BME280;34067;39.548;-76.088;2022-11-20T01:43:36;101747.10;;;5.16;46.01
31331;BME280;34067;39.548;-76.088;2022-11-20T01:46:12;101750.53;;;4.61;46.60
31331;BME280;34067;39.548;-76.088;2022-11-20T01:48:44;101749.10;;;4.69;46.31
31331;BME280;34067;39.548;-76.088;2022-11-20T01:51:19;101754.66;;;4.83;45.85
31331;BME280;34067;39.548;-76.088;2022-11-20T01:53:50;101748.89;;;5.12;46.19
31331;BME280;34067;39.548;-76.088;2022-11-20T01:56:20;101739.45;;;4.48;46.38
31331;BME280;34067;39.548;-76.088;2022-11-20T01:58:50;101736.84;;;4.53;46.55
31331;BME280;34067;39.548;-76.088;2022-11-20T02:01:20;101726.38;;;4.31;46.73
31331;BME280;34067;39.548;-76.088;2022-11-20T02:03:50;101721.11;;;5.14;46.89
31331;BME280;34067;39.548;-76.088;2022-11-20T02:06:22;101721.16;;;5.18;47.11
31331;BME280;34067;39.548;-76.088;2022-11-20T02:08:51;101720.50;;;4.88;47.60
31331;BME280;34067;39.548;-76.088;2022-11-20T02:11:19;101716.21;;;5.05;47.23
31331;BME280;34067;39.548;-76.088;2022-11-20T02:13:48;101716.99;;;4.91;47.37
31331;BME280;34067;39.548;-76.088;2022-11-20T02:16:20;101707.10;;;3.56;47.62
31331;BME280;34067;39.548;-76.088;2022-11-20T02:18:49;101712.29;;;3.68;47.84
31331;BME280;34067;39.548;-76.088;2022-11-20T02:21:28;101720.00;;;4.28;47.56
31331;BME280;34067;39.548;-76.088;2022-11-20T02:24:03;101717.53;;;4.50;47.18
31331;BME280;34067;39.548;-76.088;2022-11-20T02:26:34;101716.99;;;4.21;47.76
31331;BME280;34067;39.548;-76.088;2022-11-20T02:29:03;101720.26;;;4.13;47.71
31331;BME280;34067;39.548;-76.088;2022-11-20T02:31:36;101724.14;;;4.17;47.71
31331;BME280;34067;39.548;-76.088;2022-11-20T02:34:05;101724.47;;;3.34;47.98
31331;BME280;34067;39.548;-76.088;2022-11-20T02:36:35;101718.03;;;3.15;48.85
31331;BME280;34067;39.548;-76.088;2022-11-20T02:39:05;101717.86;;;3.26;48.99
31331;BME280;34067;39.548;-76.088;2022-11-20T02:41:34;101719.70;;;3.41;48.60
31331;BME280;34067;39.548;-76.088;2022-11-20T02:44:03;101716.82;;;3.74;48.44
31331;BME280;34067;39.548;-76.088;2022-11-20T02:46:32;101709.44;;;4.14;47.82
31331;BME280;34067;39.548;-76.088;2022-11-20T02:49:02;101700.72;;;4.21;47.81
31331;BME280;34067;39.548;-76.088;2022-11-20T02:51:31;101698.87;;;4.04;47.96
31331;BME280;34067;39.548;-76.088;2022-11-20T02:54:00;101696.92;;;4.07;48.01
31331;BME280;34067;39.548;-76.088;2022-11-20T02:56:27;101692.09;;;4.19;47.87
31331;BME280;34067;39.548;-76.088;2022-11-20T02:58:55;101694.56;;;3.84;47.94
31331;BME280;34067;39.548;-76.088;2022-11-20T03:01:23;101686.33;;;3.44;48.42
31331;BME280;34067;39.548;-76.088;2022-11-20T03:03:51;101679.11;;;3.91;48.30
31331;BME280;34067;39.548;-76.088;2022-11-20T03:06:19;101677.96;;;3.40;49.08
31331;BME280;34067;39.548;-76.088;2022-11-20T03:08:48;101675.08;;;3.23;49.13
31331;BME280;34067;39.548;-76.088;2022-11-20T03:11:16;101671.03;;;2.86;50.22
31331;BME280;34067;39.548;-76.088;2022-11-20T03:13:45;101668.85;;;3.05;49.86
31331;BME280;34067;39.548;-76.088;2022-11-20T03:16:15;101663.49;;;2.98;50.40
31331;BME280;34067;39.548;-76.088;2022-11-20T03:18:44;101657.43;;;3.49;49.65
31331;BME280;34067;39.548;-76.088;2022-11-20T03:21:13;101660.46;;;3.76;49.18
31331;BME280;34067;39.548;-76.088;2022-11-20T03:23:42;101659.34;;;3.14;49.62
31331;BME280;34067;39.548;-76.088;2022-11-20T03:26:12;101658.47;;;3.32;49.97
31331;BME280;34067;39.548;-76.088;2022-11-20T03:28:41;101651.00;;;3.60;49.45
31331;BME280;34067;39.548;-76.088;2022-11-20T03:31:10;101648.94;;;3.62;50.33
31331;BME280;34067;39.548;-76.088;2022-11-20T03:33:39;101643.68;;;3.21;49.95
31331;BME280;34067;39.548;-76.088;2022-11-20T03:36:09;101636.90;;;4.10;49.91
31331;BME280;34067;39.548;-76.088;2022-11-20T03:38:39;101636.23;;;3.47;50.17
31331;BME280;34067;39.548;-76.088;2022-11-20T03:41:10;101640.81;;;3.33;50.89
31331;BME280;34067;39.548;-76.088;2022-11-20T03:43:39;101637.19;;;3.18;50.76
31331;BME280;34067;39.548;-76.088;2022-11-20T03:46:07;101645.23;;;3.37;51.07
31331;BME280;34067;39.548;-76.088;2022-11-20T03:48:35;101644.65;;;3.08;50.83
31331;BME280;34067;39.548;-76.088;2022-11-20T03:51:12;101644.76;;;2.66;51.23
31331;BME280;34067;39.548;-76.088;2022-11-20T03:53:41;101645.71;;;3.63;51.41
31331;BME280;34067;39.548;-76.088;2022-11-20T03:56:10;101641.44;;;3.23;51.33
31331;BME280;34067;39.548;-76.088;2022-11-20T03:58:40;101638.61;;;2.64;52.50
31331;BME280;34067;39.548;-76.088;2022-11-20T04:01:10;101633.35;;;2.59;51.88
31331;BME280;34067;39.548;-76.088;2022-11-20T04:03:39;101630.81;;;3.50;51.62
31331;BME280;34067;39.548;-76.088;2022-11-20T04:06:10;101630.55;;;3.05;52.90
31331;BME280;34067;39.548;-76.088;2022-11-20T04:08:40;101624.57;;;2.61;53.39
31331;BME280;34067;39.548;-76.088;2022-11-20T04:11:10;101625.22;;;2.87;52.93
31331;BME280;34067;39.548;-76.088;2022-11-20T04:13:39;101629.06;;;2.81;53.41
31331;BME280;34067;39.548;-76.088;2022-11-20T04:16:08;101627.21;;;3.10;52.87
31331;BME280;34067;39.548;-76.088;2022-11-20T04:18:37;101623.75;;;3.08;52.46
31331;BME280;34067;39.548;-76.088;2022-11-20T04:21:06;101621.44;;;3.58;51.93
31331;BME280;34067;39.548;-76.088;2022-11-20T04:23:35;101622.47;;;3.12;51.64
31331;BME280;34067;39.548;-76.088;2022-11-20T04:26:05;101620.44;;;2.99;51.60
31331;BME280;34067;39.548;-76.088;2022-11-20T04:28:34;101623.15;;;3.02;51.45
31331;BME280;34067;39.548;-76.088;2022-11-20T04:31:04;101623.54;;;2.55;51.23
31331;BME280;34067;39.548;-76.088;2022-11-20T04:33:33;101620.98;;;2.63;50.99
31331;BME280;34067;39.548;-76.088;2022-11-20T04:36:02;101616.19;;;2.59;50.04
31331;BME280;34067;39.548;-76.088;2022-11-20T04:38:31;101607.71;;;2.59;47.95
31331;BME280;34067;39.548;-76.088;2022-11-20T04:41:00;101607.71;;;1.93;48.37
31331;BME280;34067;39.548;-76.088;2022-11-20T04:43:29;101605.44;;;2.09;46.68
31331;BME280;34067;39.548;-76.088;2022-11-20T04:45:58;101601.62;;;2.55;45.61
31331;BME280;34067;39.548;-76.088;2022-11-20T04:48:28;101606.12;;;2.22;44.67
31331;BME280;34067;39.548;-76.088;2022-11-20T04:50:56;101599.08;;;2.91;42.91
31331;BME280;34067;39.548;-76.088;2022-11-20T04:53:24;101594.51;;;2.36;42.80
31331;BME280;34067;39.548;-76.088;2022-11-20T04:55:59;101595.96;;;2.20;42.69
31331;BME280;34067;39.548;-76.088;2022-11-20T04:58:28;101595.73;;;1.18;42.19
31331;BME280;34067;39.548;-76.088;2022-11-20T05:01:01;101587.54;;;1.71;40.75
31331;BME280;34067;39.548;-76.088;2022-11-20T05:03:30;101582.32;;;1.91;40.28
31331;BME280;34067;39.548;-76.088;2022-11-20T05:06:01;101578.97;;;1.43;40.13
31331;BME280;34067;39.548;-76.088;2022-11-20T05:08:31;101579.13;;;1.88;39.35
31331;BME280;34067;39.548;-76.088;2022-11-20T05:11:03;101582.23;;;0.89;39.50
31331;BME280;34067;39.548;-76.088;2022-11-20T05:13:31;101583.11;;;0.63;39.54
31331;BME280;34067;39.548;-76.088;2022-11-20T05:16:02;101581.38;;;1.11;39.90
31331;BME280;34067;39.548;-76.088;2022-11-20T05:18:30;101583.11;;;1.34;39.62
31331;BME280;34067;39.548;-76.088;2022-11-20T05:20:58;101580.67;;;0.91;39.95
31331;BME280;34067;39.548;-76.088;2022-11-20T05:23:26;101577.43;;;0.67;40.06
31331;BME280;34067;39.548;-76.088;2022-11-20T05:25:55;101578.45;;;0.51;40.12
31331;BME280;34067;39.548;-76.088;2022-11-20T05:28:24;101575.76;;;0.02;40.42
31331;BME280;34067;39.548;-76.088;2022-11-20T05:30:51;101577.20;;;0.56;39.82
31331;BME280;34067;39.548;-76.088;2022-11-20T05:33:20;101572.63;;;0.07;39.96
31331;BME280;34067;39.548;-76.088;2022-11-20T05:35:48;101576.64;;;0.59;38.90
31331;BME280;34067;39.548;-76.088;2022-11-20T05:38:16;101577.76;;;1.03;39.03
31331;BME280;34067;39.548;-76.088;2022-11-20T05:40:45;101582.85;;;0.89;38.71
31331;BME280;34067;39.548;-76.088;2022-11-20T05:43:12;101588.20;;;0.66;38.89
31331;BME280;34067;39.548;-76.088;2022-11-20T05:45:40;101593.89;;;1.02;37.65
31331;BME280;34067;39.548;-76.088;2022-11-20T05:48:07;101596.96;;;0.71;38.42
31331;BME280;34067;39.548;-76.088;2022-11-20T05:50:35;101601.15;;;0.84;37.80
31331;BME280;34067;39.548;-76.088;2022-11-20T05:53:03;101606.82;;;1.23;37.36
31331;BME280;34067;39.548;-76.088;2022-11-20T05:55:31;101612.69;;;1.87;37.02
31331;BME280;34067;39.548;-76.088;2022-11-20T05:57:59;101618.46;;;2.43;37.04
31331;BME280;34067;39.548;-76.088;2022-11-20T06:03:09;101631.80;;;0.94;36.28
31331;BME280;34067;39.548;-76.088;2022-11-20T06:05:38;101627.60;;;1.97;35.95
31331;BME280;34067;39.548;-76.088;2022-11-20T06:08:06;101626.40;;;1.86;35.72
31331;BME280;34067;39.548;-76.088;2022-11-20T06:10:33;101629.02;;;2.29;35.25
31331;BME280;34067;39.548;-76.088;2022-11-20T06:13:01;101628.02;;;2.41;35.73
31331;BME280;34067;39.548;-76.088;2022-11-20T06:15:29;101633.10;;;0.62;35.96
31331;BME280;34067;39.548;-76.088;2022-11-20T06:17:57;101633.83;;;2.41;35.49
31331;BME280;34067;39.548;-76.088;2022-11-20T06:20:25;101636.43;;;0.63;35.64
31331;BME280;34067;39.548;-76.088;2022-11-20T06:22:53;101641.26;;;1.19;35.94
31331;BME280;34067;39.548;-76.088;2022-11-20T06:25:21;101636.86;;;2.07;34.71
31331;BME280;34067;39.548;-76.088;2022-11-20T06:27:48;101640.06;;;1.55;34.53
31331;BME280;34067;39.548;-76.088;2022-11-20T06:30:17;101642.26;;;1.43;34.24
31331;BME280;34067;39.548;-76.088;2022-11-20T06:32:46;101639.51;;;1.75;34.50
31331;BME280;34067;39.548;-76.088;2022-11-20T06:35:14;101640.66;;;2.71;34.57
31331;BME280;34067;39.548;-76.088;2022-11-20T06:37:51;101640.64;;;2.29;33.79
31331;BME280;34067;39.548;-76.088;2022-11-20T06:40:18;101640.57;;;2.51;33.48
31331;BME280;34067;39.548;-76.088;2022-11-20T06:42:46;101643.64;;;1.44;33.86
31331;BME280;34067;39.548;-76.088;2022-11-20T06:45:14;101643.65;;;1.57;33.73
31331;BME280;34067;39.548;-76.088;2022-11-20T06:47:43;101653.53;;;1.04;33.47
31331;BME280;34067;39.548;-76.088;2022-11-20T06:50:11;101658.53;;;1.05;33.90
31331;BME280;34067;39.548;-76.088;2022-11-20T06:52:39;101660.00;;;0.95;33.82
31331;BME280;34067;39.548;-76.088;2022-11-20T06:55:08;101670.68;;;1.58;33.43
31331;BME280;34067;39.548;-76.088;2022-11-20T06:57:37;101669.59;;;0.03;34.88
31331;BME280;34067;39.548;-76.088;2022-11-20T07:00:06;101669.74;;;0.47;33.97
31331;BME280;34067;39.548;-76.088;2022-11-20T07:02:34;101666.80;;;-0.76;35.07
31331;BME280;34067;39.548;-76.088;2022-11-20T07:05:02;101667.06;;;0.09;34.57
31331;BME280;34067;39.548;-76.088;2022-11-20T07:07:31;101670.70;;;-0.63;34.35
31331;BME280;34067;39.548;-76.088;2022-11-20T07:09:59;101672.75;;;-0.88;34.71
31331;BME280;34067;39.548;-76.088;2022-11-20T07:12:26;101679.75;;;-0.17;34.51
31331;BME280;34067;39.548;-76.088;2022-11-20T07:14:54;101670.71;;;-0.83;35.12
31331;BME280;34067;39.548;-76.088;2022-11-20T07:17:22;101678.05;;;-0.74;35.19
31331;BME280;34067;39.548;-76.088;2022-11-20T07:19:50;101681.75;;;-1.00;35.40
31331;BME280;34067;39.548;-76.088;2022-11-20T07:22:18;101678.82;;;-0.65;35.84
31331;BME280;34067;39.548;-76.088;2022-11-20T07:24:46;101685.42;;;-1.14;35.21
31331;BME280;34067;39.548;-76.088;2022-11-20T07:27:14;101683.55;;;-1.58;35.77
31331;BME280;34067;39.548;-76.088;2022-11-20T07:29:42;101685.53;;;-1.49;35.70
31331;BME280;34067;39.548;-76.088;2022-11-20T07:32:11;101688.73;;;-2.22;35.62
31331;BME280;34067;39.548;-76.088;2022-11-20T07:34:38;101684.66;;;-1.06;35.82
31331;BME280;34067;39.548;-76.088;2022-11-20T07:37:07;101688.56;;;-0.98;35.44
31331;BME280;34067;39.548;-76.088;2022-11-20T07:39:34;101700.06;;;-1.86;35.22
31331;BME280;34067;39.548;-76.088;2022-11-20T07:42:02;101695.37;;;-1.71;35.54
31331;BME280;34067;39.548;-76.088;2022-11-20T07:44:30;101697.94;;;-1.10;35.10
31331;BME280;34067;39.548;-76.088;2022-11-20T07:46:58;101696.33;;;-1.78;35.00
31331;BME280;34067;39.548;-76.088;2022-11-20T07:49:26;101692.87;;;-1.59;34.94
31331;BME280;34067;39.548;-76.088;2022-11-20T07:51:55;101685.31;;;-0.35;34.37
31331;BME280;34067;39.548;-76.088;2022-11-20T07:54:23;101690.03;;;-1.97;34.65
31331;BME280;34067;39.548;-76.088;2022-11-20T07:56:51;101692.83;;;-1.43;34.66
31331;BME280;34067;39.548;-76.088;2022-11-20T07:59:18;101700.75;;;-1.88;35.08
31331;BME280;34067;39.548;-76.088;2022-11-20T08:01:46;101697.01;;;-1.50;34.73
31331;BME280;34067;39.548;-76.088;2022-11-20T08:04:14;101702.63;;;-0.92;34.73
31331;BME280;34067;39.548;-76.088;2022-11-20T08:06:41;101705.92;;;-1.46;34.48
31331;BME280;34067;39.548;-76.088;2022-11-20T08:09:09;101702.98;;;-2.63;34.93
31331;BME280;34067;39.548;-76.088;2022-11-20T08:11:36;101718.27;;;-1.66;35.05
31331;BME280;34067;39.548;-76.088;2022-11-20T08:14:04;101714.34;;;-1.41;34.72
31331;BME280;34067;39.548;-76.088;2022-11-20T08:16:31;101738.54;;;-2.37;34.91
31331;BME280;34067;39.548;-76.088;2022-11-20T08:18:59;101733.81;;;-1.51;34.33
31331;BME280;34067;39.548;-76.088;2022-11-20T08:21:26;101734.44;;;-1.63;34.81
31331;BME280;34067;39.548;-76.088;2022-11-20T08:23:55;101741.26;;;-1.85;34.55
31331;BME280;34067;39.548;-76.088;2022-11-20T08:26:22;101746.19;;;-1.21;34.01
31331;BME280;34067;39.548;-76.088;2022-11-20T08:28:54;101743.97;;;-1.89;34.81
31331;BME280;34067;39.548;-76.088;2022-11-20T08:31:22;101754.18;;;-1.34;34.16
31331;BME280;34067;39.548;-76.088;2022-11-20T08:33:51;101764.20;;;-0.93;33.90
31331;BME280;34067;39.548;-76.088;2022-11-20T08:36:20;101774.87;;;-0.92;33.45
31331;BME280;34067;39.548;-76.088;2022-11-20T08:38:48;101772.87;;;-1.43;32.82
31331;BME280;34067;39.548;-76.088;2022-11-20T08:41:17;101774.56;;;-0.29;33.38
31331;BME280;34067;39.548;-76.088;2022-11-20T08:43:45;101768.04;;;-0.32;32.51
31331;BME280;34067;39.548;-76.088;2022-11-20T08:46:13;101775.60;;;-0.81;32.39
31331;BME280;34067;39.548;-76.088;2022-11-20T08:48:42;101778.46;;;-0.86;32.19
31331;BME280;34067;39.548;-76.088;2022-11-20T08:51:10;101792.10;;;-0.38;31.41
31331;BME280;34067;39.548;-76.088;2022-11-20T08:53:38;101799.51;;;0.55;31.14
31331;BME280;34067;39.548;-76.088;2022-11-20T08:56:07;101802.84;;;1.00;31.64
31331;BME280;34067;39.548;-76.088;2022-11-20T08:58:35;101805.51;;;1.09;30.98
31331;BME280;34067;39.548;-76.088;2022-11-20T09:01:03;101806.26;;;-0.35;31.38
31331;BME280;34067;39.548;-76.088;2022-11-20T09:03:31;101804.58;;;-0.34;31.67
31331;BME280;34067;39.548;-76.088;2022-11-20T09:05:59;101807.81;;;-0.87;32.33
31331;BME280;34067;39.548;-76.088;2022-11-20T09:08:27;101808.28;;;-0.19;31.58
31331;BME280;34067;39.548;-76.088;2022-11-20T09:10:56;101812.34;;;0.38;31.92
31331;BME280;34067;39.548;-76.088;2022-11-20T09:13:25;101813.78;;;-1.01;32.25
31331;BME280;34067;39.548;-76.088;2022-11-20T09:15:54;101807.88;;;0.51;32.01
31331;BME280;34067;39.548;-76.088;2022-11-20T09:18:23;101819.07;;;1.34;30.68
31331;BME280;34067;39.548;-76.088;2022-11-20T09:20:51;101814.11;;;0.22;31.50
31331;BME280;34067;39.548;-76.088;2022-11-20T09:23:18;101818.75;;;0.33;30.83
31331;BME280;34067;39.548;-76.088;2022-11-20T09:25:46;101818.97;;;-0.15;32.16
31331;BME280;34067;39.548;-76.088;2022-11-20T09:28:14;101823.03;;;1.11;30.34
31331;BME280;34067;39.548;-76.088;2022-11-20T09:30:42;101822.75;;;1.86;29.80
31331;BME280;34067;39.548;-76.088;2022-11-20T09:33:09;101829.64;;;0.64;30.13
31331;BME280;34067;39.548;-76.088;2022-11-20T09:35:37;101827.57;;;1.60;30.61
31331;BME280;34067;39.548;-76.088;2022-11-20T09:38:05;101832.57;;;1.25;30.21
31331;BME280;34067;39.548;-76.088;2022-11-20T09:40:36;101834.50;;;1.49;30.35
31331;BME280;34067;39.548;-76.088;2022-11-20T09:43:10;101836.36;;;1.92;30.40
31331;BME280;34067;39.548;-76.088;2022-11-20T09:45:56;101841.01;;;0.44;30.79
31331;BME280;34067;39.548;-76.088;2022-11-20T09:48:39;101845.36;;;1.25;31.13
31331;BME280;34067;39.548;-76.088;2022-11-20T09:51:19;101853.68;;;0.42;30.37
31331;BME280;34067;39.548;-76.088;2022-11-20T09:54:00;101857.85;;;1.57;30.12
31331;BME280;34067;39.548;-76.088;2022-11-20T09:56:35;101865.84;;;1.12;30.50
31331;BME280;34067;39.548;-76.088;2022-11-20T09:59:06;101869.23;;;1.35;29.64
31331;BME280;34067;39.548;-76.088;2022-11-20T10:01:37;101870.76;;;1.03;30.56
31331;BME280;34067;39.548;-76.088;2022-11-20T10:04:13;101874.35;;;1.37;29.50
31331;BME280;34067;39.548;-76.088;2022-11-20T10:06:47;101871.81;;;0.84;30.00
31331;BME280;34067;39.548;-76.088;2022-11-20T10:09:24;101873.33;;;0.66;30.03
31331;BME280;34067;39.548;-76.088;2022-11-20T10:12:09;101875.60;;;0.56;30.50
31331;BME280;34067;39.548;-76.088;2022-11-20T10:14:54;101878.80;;;0.96;30.75
31331;BME280;34067;39.548;-76.088;2022-11-20T10:17:38;101879.36;;;0.68;30.97
31331;BME280;34067;39.548;-76.088;2022-11-20T10:20:17;101885.71;;;0.84;30.87
31331;BME280;34067;39.548;-76.088;2022-11-20T10:23:02;101885.27;;;-0.36;31.61
31331;BME280;34067;39.548;-76.088;2022-11-20T10:25:39;101890.73;;;-1.62;31.86
31331;BME280;34067;39.548;-76.088;2022-11-20T10:28:19;101897.68;;;-1.99;32.24
31331;BME280;34067;39.548;-76.088;2022-11-20T10:30:59;101902.55;;;-2.42;32.35
31331;BME280;34067;39.548;-76.088;2022-11-20T10:33:31;101902.38;;;-1.24;31.45
31331;BME280;34067;39.548;-76.088;2022-11-20T10:36:08;101908.39;;;-2.39;31.73
31331;BME280;34067;39.548;-76.088;2022-11-20T10:38:44;101913.59;;;-1.94;32.17
31331;BME280;34067;39.548;-76.088;2022-11-20T10:41:24;101912.58;;;-1.71;31.76
31331;BME280;34067;39.548;-76.088;2022-11-20T10:44:02;101921.92;;;-1.60;31.97
31331;BME280;34067;39.548;-76.088;2022-11-20T10:46:38;101922.48;;;-2.02;31.62
31331;BME280;34067;39.548;-76.088;2022-11-20T10:49:14;101925.19;;;-1.65;31.59
31331;BME280;34067;39.548;-76.088;2022-11-20T10:51:53;101927.72;;;-1.32;31.69
31331;BME280;34067;39.548;-76.088;2022-11-20T10:54:35;101939.52;;;-2.34;31.45
31331;BME280;34067;39.548;-76.088;2022-11-20T10:57:16;101939.50;;;-1.50;31.61
31331;BME280;34067;39.548;-76.088;2022-11-20T11:00:06;101943.43;;;-2.24;31.44
31331;BME280;34067;39.548;-76.088;2022-11-20T11:02:40;101949.53;;;-1.91;31.41
31331;BME280;34067;39.548;-76.088;2022-11-20T11:05:27;101949.14;;;-2.10;31.29
31331;BME280;34067;39.548;-76.088;2022-11-20T11:07:59;101944.64;;;-2.40;31.75
31331;BME280;34067;39.548;-76.088;2022-11-20T11:10:35;101959.25;;;-2.25;32.03
31331;BME280;34067;39.548;-76.088;2022-11-20T11:13:04;101950.76;;;-2.77;32.51
31331;BME280;34067;39.548;-76.088;2022-11-20T11:15:38;101955.32;;;-2.43;32.32
31331;BME280;34067;39.548;-76.088;2022-11-20T11:18:09;101958.42;;;-2.72;32.72
31331;BME280;34067;39.548;-76.088;2022-11-20T11:20:38;101962.29;;;-2.24;32.71
31331;BME280;34067;39.548;-76.088;2022-11-20T11:23:22;101966.29;;;-2.39;32.75
31331;BME280;34067;39.548;-76.088;2022-11-20T11:25:58;101979.60;;;-2.57;33.15
31331;BME280;34067;39.548;-76.088;2022-11-20T11:28:27;101978.71;;;-3.02;33.72
31331;BME280;34067;39.548;-76.088;2022-11-20T11:30:56;101990.76;;;-2.24;33.04
31331;BME280;34067;39.548;-76.088;2022-11-20T11:33:26;101995.93;;;-2.81;32.63
31331;BME280;34067;39.548;-76.088;2022-11-20T11:35:56;101995.01;;;-2.68;32.85
31331;BME280;34067;39.548;-76.088;2022-11-20T11:38:30;102003.17;;;-2.96;33.16
31331;BME280;34067;39.548;-76.088;2022-11-20T11:41:01;102008.72;;;-2.71;33.24
31331;BME280;34067;39.548;-76.088;2022-11-20T11:43:32;102021.49;;;-2.32;33.41
31331;BME280;34067;39.548;-76.088;2022-11-20T11:46:01;102030.82;;;-3.38;33.91
31331;BME280;34067;39.548;-76.088;2022-11-20T11:48:29;102036.46;;;-2.64;33.86
31331;BME280;34067;39.548;-76.088;2022-11-20T11:50:56;102043.33;;;-2.11;33.20
31331;BME280;34067;39.548;-76.088;2022-11-20T11:53:27;102044.91;;;-3.51;34.34
31331;BME280;34067;39.548;-76.088;2022-11-20T11:56:02;102060.39;;;-3.20;34.26
31331;BME280;34067;39.548;-76.088;2022-11-20T11:58:41;102062.19;;;-2.51;34.33
31331;BME280;34067;39.548;-76.088;2022-11-20T12:01:24;102076.53;;;-2.73;34.74
31331;BME280;34067;39.548;-76.088;2022-11-20T12:04:00;102080.91;;;-3.40;34.58
31331;BME280;34067;39.548;-76.088;2022-11-20T12:06:34;102081.71;;;-2.85;34.56
31331;BME280;34067;39.548;-76.088;2022-11-20T12:09:07;102100.11;;;-2.88;34.32
31331;BME280;34067;39.548;-76.088;2022-11-20T12:11:45;102113.39;;;-4.51;35.34
31331;BME280;34067;39.548;-76.088;2022-11-20T12:14:17;102100.53;;;-3.72;34.90
31331;BME280;34067;39.548;-76.088;2022-11-20T12:16:46;102109.66;;;-4.20;35.15
31331;BME280;34067;39.548;-76.088;2022-11-20T12:19:15;102099.80;;;-4.38;35.62
31331;BME280;34067;39.548;-76.088;2022-11-20T12:21:54;102113.54;;;-4.53;35.71
31331;BME280;34067;39.548;-76.088;2022-11-20T12:24:36;102114.79;;;-4.16;35.61
31331;BME280;34067;39.548;-76.088;2022-11-20T12:28:26;102132.97;;;-3.83;34.92
31331;BME280;34067;39.548;-76.088;2022-11-20T12:31:14;102147.93;;;-3.34;34.58
31331;BME280;34067;39.548;-76.088;2022-11-20T12:33:59;102149.19;;;-3.61;34.48
31331;BME280;34067;39.548;-76.088;2022-11-20T12:36:39;102163.44;;;-2.99;33.56
31331;BME280;34067;39.548;-76.088;2022-11-20T12:39:23;102179.78;;;-3.73;33.39
31331;BME280;34067;39.548;-76.088;2022-11-20T12:43:11;102187.28;;;-3.79;33.39
31331;BME280;34067;39.548;-76.088;2022-11-20T12:46:03;102206.47;;;-4.29;32.40
31331;BME280;34067;39.548;-76.088;2022-11-20T12:49:02;102190.92;;;-4.40;32.09
31331;BME280;34067;39.548;-76.088;2022-11-20T12:52:05;102208.52;;;-3.35;32.32
31331;BME280;34067;39.548;-76.088;2022-11-20T12:54:53;102215.71;;;-3.10;31.84
31331;BME280;34067;39.548;-76.088;2022-11-20T12:57:33;102213.05;;;-4.26;31.39
31331;BME280;34067;39.548;-76.088;2022-11-20T13:00:12;102226.40;;;-3.97;30.18